sensor_id;sensor_type;location;lat;lon;timestamp;P1;durP1;ratioP1;P2;durP2;ratioP2
51248;SDS011;39642;47.556;18.728;2023-01-09T00:00:44;13.48;;;5.87;;
51248;SDS011;39642;47.556;18.728;2023-01-09T00:03:10;13.35;;;6.07;;
51248;SDS011;39642;47.556;18.728;2023-01-09T00:05:36;14.32;;;6.47;;
51248;SDS011;39642;47.556;18.728;2023-01-09T00:08:02;14.70;;;6.10;;
51248;SDS011;39642;47.556;18.728;2023-01-09T00:10:28;13.60;;;6.25;;
51248;SDS011;39642;47.556;18.728;2023-01-09T00:12:54;14.23;;;6.72;;
51248;SDS011;39642;47.556;18.728;2023-01-09T00:15:20;13.13;;;5.60;;
51248;SDS011;39642;47.556;18.728;2023-01-09T00:17:46;13.32;;;6.37;;
51248;SDS011;39642;47.556;18.728;2023-01-09T00:20:14;12.95;;;5.97;;
51248;SDS011;39642;47.556;18.728;2023-01-09T00:22:40;13.70;;;6.22;;
51248;SDS011;39642;47.556;18.728;2023-01-09T00:25:06;13.68;;;6.00;;
51248;SDS011;39642;47.556;18.728;2023-01-09T00:27:32;13.10;;;6.10;;
51248;SDS011;39642;47.556;18.728;2023-01-09T00:29:59;13.02;;;5.97;;
51248;SDS011;39642;47.556;18.728;2023-01-09T00:32:26;13.07;;;6.03;;
51248;SDS011;39642;47.556;18.728;2023-01-09T00:34:53;12.60;;;5.80;;
51248;SDS011;39642;47.556;18.728;2023-01-09T00:37:20;13.95;;;6.12;;
51248;SDS011;39642;47.556;18.728;2023-01-09T00:39:46;12.65;;;6.12;;
51248;SDS011;39642;47.556;18.728;2023-01-09T00:42:13;13.20;;;6.20;;
51248;SDS011;39642;47.556;18.728;2023-01-09T00:44:46;12.68;;;5.57;;
51248;SDS011;39642;47.556;18.728;2023-01-09T00:47:23;13.50;;;6.37;;
51248;SDS011;39642;47.556;18.728;2023-01-09T00:49:52;13.38;;;5.97;;
51248;SDS011;39642;47.556;18.728;2023-01-09T00:52:19;13.48;;;6.10;;
51248;SDS011;39642;47.556;18.728;2023-01-09T00:54:46;12.93;;;5.82;;
51248;SDS011;39642;47.556;18.728;2023-01-09T00:57:14;13.35;;;6.00;;
51248;SDS011;39642;47.556;18.728;2023-01-09T00:59:40;12.15;;;5.57;;
51248;SDS011;39642;47.556;18.728;2023-01-09T01:02:07;13.25;;;6.15;;
51248;SDS011;39642;47.556;18.728;2023-01-09T01:04:33;13.15;;;5.90;;
51248;SDS011;39642;47.556;18.728;2023-01-09T01:07:17;12.23;;;5.70;;
51248;SDS011;39642;47.556;18.728;2023-01-09T01:10:02;14.00;;;5.95;;
51248;SDS011;39642;47.556;18.728;2023-01-09T01:12:33;13.45;;;5.60;;
51248;SDS011;39642;47.556;18.728;2023-01-09T01:14:59;12.80;;;5.80;;
51248;SDS011;39642;47.556;18.728;2023-01-09T01:17:24;12.73;;;5.70;;
51248;SDS011;39642;47.556;18.728;2023-01-09T01:19:50;12.88;;;6.12;;
51248;SDS011;39642;47.556;18.728;2023-01-09T01:22:16;12.93;;;5.68;;
51248;SDS011;39642;47.556;18.728;2023-01-09T01:24:42;11.95;;;5.45;;
51248;SDS011;39642;47.556;18.728;2023-01-09T01:27:08;12.82;;;5.85;;
51248;SDS011;39642;47.556;18.728;2023-01-09T01:29:34;12.90;;;5.85;;
51248;SDS011;39642;47.556;18.728;2023-01-09T01:32:00;13.77;;;6.07;;
51248;SDS011;39642;47.556;18.728;2023-01-09T01:34:27;13.02;;;5.97;;
51248;SDS011;39642;47.556;18.728;2023-01-09T01:36:53;13.40;;;5.82;;
51248;SDS011;39642;47.556;18.728;2023-01-09T01:39:19;13.45;;;5.70;;
51248;SDS011;39642;47.556;18.728;2023-01-09T01:41:45;13.23;;;5.78;;
51248;SDS011;39642;47.556;18.728;2023-01-09T01:47:15;11.82;;;5.25;;
51248;SDS011;39642;47.556;18.728;2023-01-09T01:49:43;12.82;;;5.57;;
51248;SDS011;39642;47.556;18.728;2023-01-09T01:52:10;12.05;;;5.60;;
51248;SDS011;39642;47.556;18.728;2023-01-09T01:54:36;12.85;;;5.72;;
51248;SDS011;39642;47.556;18.728;2023-01-09T01:57:02;12.88;;;6.00;;
51248;SDS011;39642;47.556;18.728;2023-01-09T01:59:41;13.48;;;5.90;;
51248;SDS011;39642;47.556;18.728;2023-01-09T02:02:17;12.73;;;5.72;;
51248;SDS011;39642;47.556;18.728;2023-01-09T02:04:46;13.40;;;5.95;;
51248;SDS011;39642;47.556;18.728;2023-01-09T02:07:15;13.20;;;5.47;;
51248;SDS011;39642;47.556;18.728;2023-01-09T02:09:41;13.52;;;6.05;;
51248;SDS011;39642;47.556;18.728;2023-01-09T02:12:13;12.93;;;5.97;;
51248;SDS011;39642;47.556;18.728;2023-01-09T02:14:56;12.27;;;5.40;;
51248;SDS011;39642;47.556;18.728;2023-01-09T02:24:07;12.88;;;5.62;;
51248;SDS011;39642;47.556;18.728;2023-01-09T02:32:06;12.90;;;5.82;;
51248;SDS011;39642;47.556;18.728;2023-01-09T02:37:34;11.90;;;5.40;;
51248;SDS011;39642;47.556;18.728;2023-01-09T02:40:12;14.05;;;6.15;;
51248;SDS011;39642;47.556;18.728;2023-01-09T02:42:46;13.45;;;5.50;;
51248;SDS011;39642;47.556;18.728;2023-01-09T02:45:13;13.05;;;5.68;;
51248;SDS011;39642;47.556;18.728;2023-01-09T02:47:43;13.23;;;5.28;;
51248;SDS011;39642;47.556;18.728;2023-01-09T02:50:18;12.05;;;5.45;;
51248;SDS011;39642;47.556;18.728;2023-01-09T02:55:41;12.18;;;5.45;;
51248;SDS011;39642;47.556;18.728;2023-01-09T03:09:43;12.32;;;5.57;;
51248;SDS011;39642;47.556;18.728;2023-01-09T03:12:15;11.75;;;5.37;;
51248;SDS011;39642;47.556;18.728;2023-01-09T03:14:46;11.95;;;5.43;;
51248;SDS011;39642;47.556;18.728;2023-01-09T03:17:14;12.95;;;5.62;;
51248;SDS011;39642;47.556;18.728;2023-01-09T03:19:47;12.27;;;5.37;;
51248;SDS011;39642;47.556;18.728;2023-01-09T03:22:14;12.88;;;5.57;;
51248;SDS011;39642;47.556;18.728;2023-01-09T03:24:40;11.73;;;5.20;;
51248;SDS011;39642;47.556;18.728;2023-01-09T03:27:06;12.95;;;5.47;;
51248;SDS011;39642;47.556;18.728;2023-01-09T03:29:33;12.25;;;5.28;;
51248;SDS011;39642;47.556;18.728;2023-01-09T03:31:59;13.30;;;5.93;;
51248;SDS011;39642;47.556;18.728;2023-01-09T03:34:25;12.20;;;5.53;;
51248;SDS011;39642;47.556;18.728;2023-01-09T03:36:51;11.70;;;5.43;;
51248;SDS011;39642;47.556;18.728;2023-01-09T03:39:17;12.70;;;5.80;;
51248;SDS011;39642;47.556;18.728;2023-01-09T03:41:43;13.90;;;5.57;;
51248;SDS011;39642;47.556;18.728;2023-01-09T03:44:09;12.82;;;5.25;;
51248;SDS011;39642;47.556;18.728;2023-01-09T03:46:35;12.10;;;5.30;;
51248;SDS011;39642;47.556;18.728;2023-01-09T03:49:00;11.60;;;5.22;;
51248;SDS011;39642;47.556;18.728;2023-01-09T03:51:26;12.55;;;5.43;;
51248;SDS011;39642;47.556;18.728;2023-01-09T03:53:52;12.48;;;5.30;;
51248;SDS011;39642;47.556;18.728;2023-01-09T03:56:18;13.18;;;5.80;;
51248;SDS011;39642;47.556;18.728;2023-01-09T03:58:44;12.60;;;5.65;;
51248;SDS011;39642;47.556;18.728;2023-01-09T04:01:10;13.05;;;5.60;;
51248;SDS011;39642;47.556;18.728;2023-01-09T04:03:38;11.57;;;5.03;;
51248;SDS011;39642;47.556;18.728;2023-01-09T04:06:05;10.93;;;4.95;;
51248;SDS011;39642;47.556;18.728;2023-01-09T04:08:32;12.73;;;5.00;;
51248;SDS011;39642;47.556;18.728;2023-01-09T04:10:58;11.15;;;4.87;;
51248;SDS011;39642;47.556;18.728;2023-01-09T04:13:23;12.18;;;5.20;;
51248;SDS011;39642;47.556;18.728;2023-01-09T04:15:49;12.25;;;5.37;;
51248;SDS011;39642;47.556;18.728;2023-01-09T04:18:15;12.23;;;5.37;;
51248;SDS011;39642;47.556;18.728;2023-01-09T04:20:41;12.73;;;5.47;;
51248;SDS011;39642;47.556;18.728;2023-01-09T04:23:07;11.82;;;5.15;;
51248;SDS011;39642;47.556;18.728;2023-01-09T04:25:33;11.93;;;5.40;;
51248;SDS011;39642;47.556;18.728;2023-01-09T04:27:59;11.88;;;4.90;;
51248;SDS011;39642;47.556;18.728;2023-01-09T04:30:25;12.55;;;5.00;;
51248;SDS011;39642;47.556;18.728;2023-01-09T04:32:51;12.13;;;5.30;;
51248;SDS011;39642;47.556;18.728;2023-01-09T04:35:17;12.68;;;5.25;;
51248;SDS011;39642;47.556;18.728;2023-01-09T04:37:43;13.15;;;5.30;;
51248;SDS011;39642;47.556;18.728;2023-01-09T04:40:09;11.55;;;4.80;;
51248;SDS011;39642;47.556;18.728;2023-01-09T04:42:37;12.13;;;5.30;;
51248;SDS011;39642;47.556;18.728;2023-01-09T04:45:04;12.77;;;5.60;;
51248;SDS011;39642;47.556;18.728;2023-01-09T04:47:31;11.55;;;4.90;;
51248;SDS011;39642;47.556;18.728;2023-01-09T04:49:57;11.50;;;4.80;;
51248;SDS011;39642;47.556;18.728;2023-01-09T04:52:23;12.70;;;5.15;;
51248;SDS011;39642;47.556;18.728;2023-01-09T04:54:49;12.85;;;5.25;;
51248;SDS011;39642;47.556;18.728;2023-01-09T04:57:15;11.30;;;4.93;;
51248;SDS011;39642;47.556;18.728;2023-01-09T04:59:42;11.57;;;5.10;;
51248;SDS011;39642;47.556;18.728;2023-01-09T05:02:08;11.63;;;5.20;;
51248;SDS011;39642;47.556;18.728;2023-01-09T05:04:34;12.57;;;5.18;;
51248;SDS011;39642;47.556;18.728;2023-01-09T05:07:00;11.18;;;4.90;;
51248;SDS011;39642;47.556;18.728;2023-01-09T05:09:27;12.88;;;5.50;;
51248;SDS011;39642;47.556;18.728;2023-01-09T05:11:53;12.80;;;5.25;;
51248;SDS011;39642;47.556;18.728;2023-01-09T05:14:19;12.45;;;5.10;;
51248;SDS011;39642;47.556;18.728;2023-01-09T05:16:45;12.43;;;5.05;;
51248;SDS011;39642;47.556;18.728;2023-01-09T05:19:11;11.70;;;4.90;;
51248;SDS011;39642;47.556;18.728;2023-01-09T05:21:36;11.32;;;4.95;;
51248;SDS011;39642;47.556;18.728;2023-01-09T05:24:02;10.82;;;4.57;;
51248;SDS011;39642;47.556;18.728;2023-01-09T05:26:28;11.73;;;4.82;;
51248;SDS011;39642;47.556;18.728;2023-01-09T05:28:55;13.13;;;4.70;;
51248;SDS011;39642;47.556;18.728;2023-01-09T05:31:21;12.05;;;4.87;;
51248;SDS011;39642;47.556;18.728;2023-01-09T05:33:48;12.07;;;5.12;;
51248;SDS011;39642;47.556;18.728;2023-01-09T05:36:14;12.80;;;5.53;;
51248;SDS011;39642;47.556;18.728;2023-01-09T05:38:40;12.02;;;5.15;;
51248;SDS011;39642;47.556;18.728;2023-01-09T05:41:06;11.02;;;4.68;;
51248;SDS011;39642;47.556;18.728;2023-01-09T05:43:32;12.77;;;5.20;;
51248;SDS011;39642;47.556;18.728;2023-01-09T05:45:58;12.18;;;4.78;;
51248;SDS011;39642;47.556;18.728;2023-01-09T05:48:24;11.32;;;4.50;;
51248;SDS011;39642;47.556;18.728;2023-01-09T05:50:50;11.57;;;4.90;;
51248;SDS011;39642;47.556;18.728;2023-01-09T05:53:16;12.20;;;4.87;;
51248;SDS011;39642;47.556;18.728;2023-01-09T05:55:42;14.07;;;5.93;;
51248;SDS011;39642;47.556;18.728;2023-01-09T05:58:08;14.15;;;6.00;;
51248;SDS011;39642;47.556;18.728;2023-01-09T06:00:34;13.50;;;5.20;;
51248;SDS011;39642;47.556;18.728;2023-01-09T06:03:00;14.52;;;6.72;;
51248;SDS011;39642;47.556;18.728;2023-01-09T06:05:26;16.30;;;7.45;;
51248;SDS011;39642;47.556;18.728;2023-01-09T06:07:52;18.52;;;8.13;;
51248;SDS011;39642;47.556;18.728;2023-01-09T06:10:18;17.35;;;7.80;;
51248;SDS011;39642;47.556;18.728;2023-01-09T06:12:48;18.00;;;7.87;;
51248;SDS011;39642;47.556;18.728;2023-01-09T06:15:15;15.82;;;6.90;;
51248;SDS011;39642;47.556;18.728;2023-01-09T06:17:42;15.05;;;6.57;;
51248;SDS011;39642;47.556;18.728;2023-01-09T06:20:09;26.48;;;9.27;;
51248;SDS011;39642;47.556;18.728;2023-01-09T06:22:35;24.42;;;9.98;;
51248;SDS011;39642;47.556;18.728;2023-01-09T06:25:01;29.95;;;11.20;;
51248;SDS011;39642;47.556;18.728;2023-01-09T06:27:27;28.20;;;10.98;;
51248;SDS011;39642;47.556;18.728;2023-01-09T06:29:55;18.60;;;8.35;;
51248;SDS011;39642;47.556;18.728;2023-01-09T06:32:21;21.92;;;7.80;;
51248;SDS011;39642;47.556;18.728;2023-01-09T06:34:46;19.10;;;8.10;;
51248;SDS011;39642;47.556;18.728;2023-01-09T06:37:12;17.52;;;7.10;;
51248;SDS011;39642;47.556;18.728;2023-01-09T06:39:38;22.20;;;7.85;;
51248;SDS011;39642;47.556;18.728;2023-01-09T06:42:04;29.70;;;9.00;;
51248;SDS011;39642;47.556;18.728;2023-01-09T06:44:30;21.02;;;9.05;;
51248;SDS011;39642;47.556;18.728;2023-01-09T06:46:57;22.08;;;9.50;;
51248;SDS011;39642;47.556;18.728;2023-01-09T06:49:23;19.62;;;9.23;;
51248;SDS011;39642;47.556;18.728;2023-01-09T06:51:49;23.50;;;8.32;;
51248;SDS011;39642;47.556;18.728;2023-01-09T06:54:16;18.17;;;9.13;;
51248;SDS011;39642;47.556;18.728;2023-01-09T06:56:43;22.52;;;9.27;;
51248;SDS011;39642;47.556;18.728;2023-01-09T06:59:09;34.65;;;11.40;;
51248;SDS011;39642;47.556;18.728;2023-01-09T07:01:35;37.38;;;13.27;;
51248;SDS011;39642;47.556;18.728;2023-01-09T07:04:01;33.35;;;10.95;;
51248;SDS011;39642;47.556;18.728;2023-01-09T07:06:29;27.25;;;9.90;;
51248;SDS011;39642;47.556;18.728;2023-01-09T07:08:55;21.67;;;10.05;;
51248;SDS011;39642;47.556;18.728;2023-01-09T07:11:21;22.75;;;8.43;;
51248;SDS011;39642;47.556;18.728;2023-01-09T07:13:47;22.08;;;8.75;;
51248;SDS011;39642;47.556;18.728;2023-01-09T07:16:14;21.92;;;9.40;;
51248;SDS011;39642;47.556;18.728;2023-01-09T07:18:40;19.27;;;8.75;;
51248;SDS011;39642;47.556;18.728;2023-01-09T07:21:06;23.95;;;10.40;;
51248;SDS011;39642;47.556;18.728;2023-01-09T07:23:32;24.17;;;8.32;;
51248;SDS011;39642;47.556;18.728;2023-01-09T07:25:58;26.33;;;9.77;;
51248;SDS011;39642;47.556;18.728;2023-01-09T07:28:24;25.58;;;9.90;;
51248;SDS011;39642;47.556;18.728;2023-01-09T07:30:50;25.05;;;9.55;;
51248;SDS011;39642;47.556;18.728;2023-01-09T07:33:17;30.75;;;9.95;;
51248;SDS011;39642;47.556;18.728;2023-01-09T07:35:43;22.45;;;7.70;;
51248;SDS011;39642;47.556;18.728;2023-01-09T07:38:09;26.23;;;7.70;;
51248;SDS011;39642;47.556;18.728;2023-01-09T07:40:35;24.83;;;7.80;;
51248;SDS011;39642;47.556;18.728;2023-01-09T07:54:02;27.30;;;9.02;;
51248;SDS011;39642;47.556;18.728;2023-01-09T07:56:28;28.98;;;9.90;;
51248;SDS011;39642;47.556;18.728;2023-01-09T07:58:54;30.92;;;9.13;;
51248;SDS011;39642;47.556;18.728;2023-01-09T08:01:20;23.02;;;8.98;;
51248;SDS011;39642;47.556;18.728;2023-01-09T08:03:46;27.60;;;8.18;;
51248;SDS011;39642;47.556;18.728;2023-01-09T08:06:11;25.85;;;8.43;;
51248;SDS011;39642;47.556;18.728;2023-01-09T08:08:41;23.45;;;9.07;;
51248;SDS011;39642;47.556;18.728;2023-01-09T08:11:10;22.48;;;8.15;;
51248;SDS011;39642;47.556;18.728;2023-01-09T08:13:36;23.17;;;7.97;;
51248;SDS011;39642;47.556;18.728;2023-01-09T08:16:02;29.67;;;8.93;;
51248;SDS011;39642;47.556;18.728;2023-01-09T08:18:31;24.70;;;8.10;;
51248;SDS011;39642;47.556;18.728;2023-01-09T08:20:57;28.20;;;9.00;;
51248;SDS011;39642;47.556;18.728;2023-01-09T08:23:23;23.05;;;8.32;;
51248;SDS011;39642;47.556;18.728;2023-01-09T08:25:49;26.42;;;8.68;;
51248;SDS011;39642;47.556;18.728;2023-01-09T08:28:15;23.48;;;8.25;;
51248;SDS011;39642;47.556;18.728;2023-01-09T08:30:42;20.80;;;7.65;;
51248;SDS011;39642;47.556;18.728;2023-01-09T08:33:08;24.45;;;7.85;;
51248;SDS011;39642;47.556;18.728;2023-01-09T08:35:34;18.33;;;7.30;;
51248;SDS011;39642;47.556;18.728;2023-01-09T08:38:00;27.00;;;7.30;;
51248;SDS011;39642;47.556;18.728;2023-01-09T08:40:26;27.20;;;8.00;;
51248;SDS011;39642;47.556;18.728;2023-01-09T08:42:51;17.17;;;7.10;;
51248;SDS011;39642;47.556;18.728;2023-01-09T08:45:36;21.17;;;7.68;;
51248;SDS011;39642;47.556;18.728;2023-01-09T08:48:20;23.77;;;8.50;;
51248;SDS011;39642;47.556;18.728;2023-01-09T08:50:46;23.60;;;7.68;;
51248;SDS011;39642;47.556;18.728;2023-01-09T08:53:12;27.95;;;7.57;;
51248;SDS011;39642;47.556;18.728;2023-01-09T08:55:38;32.55;;;8.75;;
51248;SDS011;39642;47.556;18.728;2023-01-09T08:58:04;24.75;;;7.72;;
51248;SDS011;39642;47.556;18.728;2023-01-09T09:00:30;36.30;;;9.00;;
51248;SDS011;39642;47.556;18.728;2023-01-09T09:02:57;23.95;;;7.87;;
51248;SDS011;39642;47.556;18.728;2023-01-09T09:05:24;29.85;;;9.07;;
51248;SDS011;39642;47.556;18.728;2023-01-09T09:07:52;28.30;;;8.38;;
51248;SDS011;39642;47.556;18.728;2023-01-09T09:10:23;25.20;;;7.25;;
51248;SDS011;39642;47.556;18.728;2023-01-09T09:12:52;26.60;;;8.73;;
51248;SDS011;39642;47.556;18.728;2023-01-09T09:15:20;28.10;;;8.93;;
51248;SDS011;39642;47.556;18.728;2023-01-09T09:17:53;22.70;;;7.22;;
51248;SDS011;39642;47.556;18.728;2023-01-09T09:20:24;27.10;;;8.73;;
51248;SDS011;39642;47.556;18.728;2023-01-09T09:22:52;26.85;;;9.10;;
51248;SDS011;39642;47.556;18.728;2023-01-09T09:25:18;27.55;;;9.38;;
51248;SDS011;39642;47.556;18.728;2023-01-09T09:27:45;26.67;;;8.90;;
51248;SDS011;39642;47.556;18.728;2023-01-09T09:30:12;21.52;;;8.57;;
51248;SDS011;39642;47.556;18.728;2023-01-09T09:32:39;31.35;;;9.50;;
51248;SDS011;39642;47.556;18.728;2023-01-09T09:35:05;22.85;;;8.30;;
51248;SDS011;39642;47.556;18.728;2023-01-09T09:37:32;30.75;;;8.77;;
51248;SDS011;39642;47.556;18.728;2023-01-09T09:39:58;231.52;;;20.17;;
51248;SDS011;39642;47.556;18.728;2023-01-09T09:45:44;42.38;;;9.40;;
51248;SDS011;39642;47.556;18.728;2023-01-09T09:48:36;36.38;;;9.27;;
51248;SDS011;39642;47.556;18.728;2023-01-09T09:53:53;33.00;;;9.20;;
51248;SDS011;39642;47.556;18.728;2023-01-09T09:56:24;32.20;;;8.68;;
51248;SDS011;39642;47.556;18.728;2023-01-09T09:58:55;32.72;;;9.55;;
51248;SDS011;39642;47.556;18.728;2023-01-09T10:04:45;48.20;;;9.18;;
51248;SDS011;39642;47.556;18.728;2023-01-09T10:07:18;33.40;;;10.07;;
51248;SDS011;39642;47.556;18.728;2023-01-09T10:09:52;42.20;;;9.57;;
51248;SDS011;39642;47.556;18.728;2023-01-09T10:14:45;26.92;;;9.18;;
51248;SDS011;39642;47.556;18.728;2023-01-09T10:20:13;29.15;;;8.60;;
51248;SDS011;39642;47.556;18.728;2023-01-09T10:25:56;29.20;;;8.20;;
51248;SDS011;39642;47.556;18.728;2023-01-09T10:34:13;27.02;;;8.00;;
51248;SDS011;39642;47.556;18.728;2023-01-09T10:37:13;28.17;;;9.15;;
51248;SDS011;39642;47.556;18.728;2023-01-09T10:42:40;31.40;;;8.57;;
51248;SDS011;39642;47.556;18.728;2023-01-09T10:48:04;28.23;;;8.48;;
51248;SDS011;39642;47.556;18.728;2023-01-09T10:50:38;35.40;;;8.60;;
51248;SDS011;39642;47.556;18.728;2023-01-09T10:53:15;21.53;;;7.80;;
51248;SDS011;39642;47.556;18.728;2023-01-09T10:56:14;35.60;;;9.18;;
51248;SDS011;39642;47.556;18.728;2023-01-09T10:58:45;32.90;;;9.30;;
51248;SDS011;39642;47.556;18.728;2023-01-09T11:01:12;31.23;;;8.68;;
51248;SDS011;39642;47.556;18.728;2023-01-09T11:03:38;30.20;;;8.48;;
51248;SDS011;39642;47.556;18.728;2023-01-09T11:06:05;30.10;;;8.65;;
51248;SDS011;39642;47.556;18.728;2023-01-09T11:08:47;31.30;;;8.30;;
51248;SDS011;39642;47.556;18.728;2023-01-09T11:14:17;26.95;;;8.85;;
51248;SDS011;39642;47.556;18.728;2023-01-09T11:17:01;24.37;;;8.85;;
51248;SDS011;39642;47.556;18.728;2023-01-09T11:19:29;30.23;;;9.07;;
51248;SDS011;39642;47.556;18.728;2023-01-09T11:22:07;27.67;;;9.18;;
51248;SDS011;39642;47.556;18.728;2023-01-09T11:24:39;24.95;;;9.32;;
51248;SDS011;39642;47.556;18.728;2023-01-09T11:29:37;29.60;;;9.18;;
51248;SDS011;39642;47.556;18.728;2023-01-09T11:32:03;28.23;;;8.77;;
51248;SDS011;39642;47.556;18.728;2023-01-09T11:34:29;28.83;;;8.52;;
51248;SDS011;39642;47.556;18.728;2023-01-09T11:37:07;24.50;;;8.10;;
51248;SDS011;39642;47.556;18.728;2023-01-09T11:39:36;25.08;;;8.02;;
51248;SDS011;39642;47.556;18.728;2023-01-09T11:42:08;37.00;;;9.45;;
51248;SDS011;39642;47.556;18.728;2023-01-09T11:45:16;40.17;;;10.15;;
51248;SDS011;39642;47.556;18.728;2023-01-09T11:47:52;39.08;;;8.85;;
51248;SDS011;39642;47.556;18.728;2023-01-09T11:56:55;39.92;;;10.07;;
51248;SDS011;39642;47.556;18.728;2023-01-09T11:59:25;33.72;;;8.77;;
51248;SDS011;39642;47.556;18.728;2023-01-09T12:13:18;34.40;;;9.15;;
51248;SDS011;39642;47.556;18.728;2023-01-09T12:18:56;31.90;;;10.27;;
51248;SDS011;39642;47.556;18.728;2023-01-09T12:24:26;32.05;;;10.48;;
51248;SDS011;39642;47.556;18.728;2023-01-09T12:32:37;28.90;;;10.60;;
51248;SDS011;39642;47.556;18.728;2023-01-09T12:35:23;38.58;;;10.23;;
51248;SDS011;39642;47.556;18.728;2023-01-09T12:46:15;35.92;;;11.15;;
51248;SDS011;39642;47.556;18.728;2023-01-09T12:57:31;47.08;;;11.88;;
51248;SDS011;39642;47.556;18.728;2023-01-09T13:00:02;43.45;;;11.65;;
51248;SDS011;39642;47.556;18.728;2023-01-09T13:02:37;30.60;;;10.20;;
51248;SDS011;39642;47.556;18.728;2023-01-09T13:05:14;37.25;;;11.88;;
51248;SDS011;39642;47.556;18.728;2023-01-09T13:07:47;34.42;;;11.32;;
51248;SDS011;39642;47.556;18.728;2023-01-09T13:13:12;34.33;;;12.15;;
51248;SDS011;39642;47.556;18.728;2023-01-09T13:15:44;26.17;;;11.50;;
51248;SDS011;39642;47.556;18.728;2023-01-09T13:18:22;28.33;;;12.57;;
51248;SDS011;39642;47.556;18.728;2023-01-09T13:21:11;34.88;;;11.25;;
51248;SDS011;39642;47.556;18.728;2023-01-09T13:23:48;33.90;;;12.35;;
51248;SDS011;39642;47.556;18.728;2023-01-09T13:26:21;31.15;;;10.75;;
51248;SDS011;39642;47.556;18.728;2023-01-09T13:29:04;37.47;;;13.02;;
51248;SDS011;39642;47.556;18.728;2023-01-09T13:34:18;39.30;;;12.20;;
51248;SDS011;39642;47.556;18.728;2023-01-09T13:36:48;33.22;;;9.30;;
51248;SDS011;39642;47.556;18.728;2023-01-09T13:39:23;31.62;;;12.23;;
51248;SDS011;39642;47.556;18.728;2023-01-09T13:41:52;33.50;;;10.43;;
51248;SDS011;39642;47.556;18.728;2023-01-09T13:44:40;35.80;;;10.85;;
51248;SDS011;39642;47.556;18.728;2023-01-09T13:47:13;35.83;;;10.27;;
51248;SDS011;39642;47.556;18.728;2023-01-09T13:57:24;27.67;;;8.88;;
51248;SDS011;39642;47.556;18.728;2023-01-09T13:59:57;32.65;;;9.05;;
51248;SDS011;39642;47.556;18.728;2023-01-09T14:05:15;36.53;;;11.60;;
51248;SDS011;39642;47.556;18.728;2023-01-09T14:08:02;25.45;;;10.10;;
51248;SDS011;39642;47.556;18.728;2023-01-09T14:10:36;35.22;;;11.32;;
51248;SDS011;39642;47.556;18.728;2023-01-09T14:13:07;29.60;;;11.00;;
51248;SDS011;39642;47.556;18.728;2023-01-09T14:15:40;33.70;;;10.60;;
51248;SDS011;39642;47.556;18.728;2023-01-09T14:18:16;27.80;;;9.73;;
51248;SDS011;39642;47.556;18.728;2023-01-09T14:20:57;33.90;;;12.93;;
51248;SDS011;39642;47.556;18.728;2023-01-09T14:23:27;31.27;;;11.00;;
51248;SDS011;39642;47.556;18.728;2023-01-09T14:25:57;33.92;;;11.15;;
51248;SDS011;39642;47.556;18.728;2023-01-09T14:28:24;30.73;;;10.65;;
51248;SDS011;39642;47.556;18.728;2023-01-09T14:36:17;36.50;;;12.43;;
51248;SDS011;39642;47.556;18.728;2023-01-09T14:38:47;39.30;;;11.90;;
51248;SDS011;39642;47.556;18.728;2023-01-09T14:41:23;40.03;;;10.88;;
51248;SDS011;39642;47.556;18.728;2023-01-09T14:46:53;41.80;;;12.15;;
51248;SDS011;39642;47.556;18.728;2023-01-09T14:49:33;31.08;;;10.85;;
51248;SDS011;39642;47.556;18.728;2023-01-09T14:52:08;28.52;;;10.98;;
51248;SDS011;39642;47.556;18.728;2023-01-09T14:54:43;32.83;;;12.77;;
51248;SDS011;39642;47.556;18.728;2023-01-09T14:57:28;37.00;;;12.13;;
51248;SDS011;39642;47.556;18.728;2023-01-09T15:00:22;36.25;;;12.37;;
51248;SDS011;39642;47.556;18.728;2023-01-09T15:02:47;31.37;;;13.20;;
51248;SDS011;39642;47.556;18.728;2023-01-09T15:05:16;47.62;;;11.98;;
51248;SDS011;39642;47.556;18.728;2023-01-09T15:07:50;47.10;;;13.27;;
51248;SDS011;39642;47.556;18.728;2023-01-09T15:10:23;49.05;;;12.80;;
51248;SDS011;39642;47.556;18.728;2023-01-09T15:12:53;44.35;;;12.60;;
51248;SDS011;39642;47.556;18.728;2023-01-09T15:15:22;34.92;;;13.73;;
51248;SDS011;39642;47.556;18.728;2023-01-09T15:17:56;39.35;;;14.00;;
51248;SDS011;39642;47.556;18.728;2023-01-09T15:20:25;38.83;;;14.10;;
51248;SDS011;39642;47.556;18.728;2023-01-09T15:22:53;32.50;;;13.65;;
51248;SDS011;39642;47.556;18.728;2023-01-09T15:25:37;30.58;;;13.07;;
51248;SDS011;39642;47.556;18.728;2023-01-09T15:30:56;31.90;;;13.30;;
51248;SDS011;39642;47.556;18.728;2023-01-09T15:33:27;26.87;;;12.65;;
51248;SDS011;39642;47.556;18.728;2023-01-09T15:35:53;39.92;;;12.90;;
51248;SDS011;39642;47.556;18.728;2023-01-09T15:38:24;29.45;;;13.35;;
51248;SDS011;39642;47.556;18.728;2023-01-09T15:40:58;34.63;;;12.93;;
51248;SDS011;39642;47.556;18.728;2023-01-09T15:43:28;33.80;;;12.88;;
51248;SDS011;39642;47.556;18.728;2023-01-09T15:45:56;28.73;;;13.13;;
51248;SDS011;39642;47.556;18.728;2023-01-09T15:48:27;36.88;;;13.25;;
51248;SDS011;39642;47.556;18.728;2023-01-09T15:50:56;36.75;;;14.55;;
51248;SDS011;39642;47.556;18.728;2023-01-09T15:53:26;24.45;;;11.25;;
51248;SDS011;39642;47.556;18.728;2023-01-09T15:58:50;33.58;;;13.10;;
51248;SDS011;39642;47.556;18.728;2023-01-09T16:01:30;30.90;;;14.25;;
51248;SDS011;39642;47.556;18.728;2023-01-09T16:04:17;34.60;;;13.68;;
51248;SDS011;39642;47.556;18.728;2023-01-09T16:06:43;31.15;;;13.20;;
51248;SDS011;39642;47.556;18.728;2023-01-09T16:11:58;27.77;;;13.25;;
51248;SDS011;39642;47.556;18.728;2023-01-09T16:14:30;33.60;;;13.20;;
51248;SDS011;39642;47.556;18.728;2023-01-09T16:17:00;30.92;;;12.32;;
51248;SDS011;39642;47.556;18.728;2023-01-09T16:19:30;32.15;;;12.63;;
51248;SDS011;39642;47.556;18.728;2023-01-09T16:21:56;33.95;;;13.15;;
51248;SDS011;39642;47.556;18.728;2023-01-09T16:24:24;29.63;;;12.20;;
51248;SDS011;39642;47.556;18.728;2023-01-09T16:27:19;27.60;;;11.50;;
51248;SDS011;39642;47.556;18.728;2023-01-09T16:29:46;33.10;;;11.47;;
51248;SDS011;39642;47.556;18.728;2023-01-09T16:33:01;29.48;;;13.02;;
51248;SDS011;39642;47.556;18.728;2023-01-09T16:35:16;28.87;;;12.95;;
51248;SDS011;39642;47.556;18.728;2023-01-09T16:37:43;27.40;;;11.98;;
51248;SDS011;39642;47.556;18.728;2023-01-09T16:42:38;25.48;;;12.43;;
51248;SDS011;39642;47.556;18.728;2023-01-09T16:45:27;24.35;;;11.73;;
51248;SDS011;39642;47.556;18.728;2023-01-09T16:47:56;28.35;;;12.23;;
51248;SDS011;39642;47.556;18.728;2023-01-09T16:50:22;28.87;;;12.10;;
51248;SDS011;39642;47.556;18.728;2023-01-09T16:52:49;26.55;;;11.80;;
51248;SDS011;39642;47.556;18.728;2023-01-09T16:55:16;23.73;;;12.13;;
51248;SDS011;39642;47.556;18.728;2023-01-09T16:57:41;24.98;;;11.43;;
51248;SDS011;39642;47.556;18.728;2023-01-09T17:00:17;28.70;;;12.18;;
51248;SDS011;39642;47.556;18.728;2023-01-09T17:02:44;28.73;;;12.02;;
51248;SDS011;39642;47.556;18.728;2023-01-09T17:05:11;26.02;;;11.63;;
51248;SDS011;39642;47.556;18.728;2023-01-09T17:07:37;25.23;;;11.82;;
51248;SDS011;39642;47.556;18.728;2023-01-09T17:10:03;26.80;;;11.70;;
51248;SDS011;39642;47.556;18.728;2023-01-09T17:12:30;22.17;;;10.98;;